sensor_id;sensor_type;location;lat;lon;timestamp;P1;durP1;ratioP1;P2;durP2;ratioP2
27889;SDS011;15238;49.082;9.102;2023-03-12T00:01:42;19.08;;;9.50;;
27889;SDS011;15238;49.082;9.102;2023-03-12T00:03:43;23.15;;;9.95;;
27889;SDS011;15238;49.082;9.102;2023-03-12T00:05:44;22.58;;;9.48;;
27889;SDS011;15238;49.082;9.102;2023-03-12T00:07:44;17.08;;;8.80;;
27889;SDS011;15238;49.082;9.102;2023-03-12T00:09:45;14.05;;;7.60;;
27889;SDS011;15238;49.082;9.102;2023-03-12T00:11:45;15.57;;;7.68;;
27889;SDS011;15238;49.082;9.102;2023-03-12T00:13:49;14.60;;;7.90;;
27889;SDS011;15238;49.082;9.102;2023-03-12T00:15:51;12.18;;;7.15;;
27889;SDS011;15238;49.082;9.102;2023-03-12T00:17:51;16.35;;;7.60;;
27889;SDS011;15238;49.082;9.102;2023-03-12T00:19:52;13.15;;;7.43;;
27889;SDS011;15238;49.082;9.102;2023-03-12T00:21:53;13.25;;;7.00;;
27889;SDS011;15238;49.082;9.102;2023-03-12T00:23:53;12.32;;;7.18;;
27889;SDS011;15238;49.082;9.102;2023-03-12T00:25:57;15.13;;;7.47;;
27889;SDS011;15238;49.082;9.102;2023-03-12T00:28:00;18.85;;;8.25;;
27889;SDS011;15238;49.082;9.102;2023-03-12T00:30:00;21.15;;;8.75;;
27889;SDS011;15238;49.082;9.102;2023-03-12T00:32:01;18.15;;;9.80;;
27889;SDS011;15238;49.082;9.102;2023-03-12T00:34:02;15.98;;;8.07;;
27889;SDS011;15238;49.082;9.102;2023-03-12T00:36:02;19.60;;;8.65;;
27889;SDS011;15238;49.082;9.102;2023-03-12T00:38:03;15.05;;;8.50;;
27889;SDS011;15238;49.082;9.102;2023-03-12T00:40:04;15.02;;;7.32;;
27889;SDS011;15238;49.082;9.102;2023-03-12T00:42:07;15.60;;;7.35;;
27889;SDS011;15238;49.082;9.102;2023-03-12T00:44:07;18.40;;;7.60;;
27889;SDS011;15238;49.082;9.102;2023-03-12T00:46:08;18.27;;;6.97;;
27889;SDS011;15238;49.082;9.102;2023-03-12T00:48:08;11.60;;;6.68;;
27889;SDS011;15238;49.082;9.102;2023-03-12T00:50:09;12.00;;;6.65;;
27889;SDS011;15238;49.082;9.102;2023-03-12T00:52:10;15.02;;;6.82;;
27889;SDS011;15238;49.082;9.102;2023-03-12T00:54:10;9.95;;;5.93;;
27889;SDS011;15238;49.082;9.102;2023-03-12T00:56:11;12.57;;;5.70;;
27889;SDS011;15238;49.082;9.102;2023-03-12T00:58:12;11.13;;;5.82;;
27889;SDS011;15238;49.082;9.102;2023-03-12T01:00:12;11.60;;;5.85;;
27889;SDS011;15238;49.082;9.102;2023-03-12T01:02:13;12.10;;;5.80;;
27889;SDS011;15238;49.082;9.102;2023-03-12T01:04:14;10.48;;;5.97;;
27889;SDS011;15238;49.082;9.102;2023-03-12T01:06:16;14.85;;;6.75;;
27889;SDS011;15238;49.082;9.102;2023-03-12T01:08:17;12.85;;;5.95;;
27889;SDS011;15238;49.082;9.102;2023-03-12T01:10:18;11.55;;;5.88;;
27889;SDS011;15238;49.082;9.102;2023-03-12T01:12:19;14.30;;;6.53;;
27889;SDS011;15238;49.082;9.102;2023-03-12T01:14:20;15.13;;;6.25;;
27889;SDS011;15238;49.082;9.102;2023-03-12T01:16:20;11.40;;;6.72;;
27889;SDS011;15238;49.082;9.102;2023-03-12T01:18:21;12.45;;;6.22;;
27889;SDS011;15238;49.082;9.102;2023-03-12T01:20:21;11.27;;;6.22;;
27889;SDS011;15238;49.082;9.102;2023-03-12T01:22:22;11.95;;;6.05;;
27889;SDS011;15238;49.082;9.102;2023-03-12T01:24:22;10.63;;;6.22;;
27889;SDS011;15238;49.082;9.102;2023-03-12T01:26:23;11.88;;;5.90;;
27889;SDS011;15238;49.082;9.102;2023-03-12T01:28:24;21.65;;;7.13;;
27889;SDS011;15238;49.082;9.102;2023-03-12T01:30:25;14.35;;;7.10;;
27889;SDS011;15238;49.082;9.102;2023-03-12T01:32:26;13.43;;;6.80;;
27889;SDS011;15238;49.082;9.102;2023-03-12T01:34:27;17.80;;;7.40;;
27889;SDS011;15238;49.082;9.102;2023-03-12T01:36:28;16.73;;;7.68;;
27889;SDS011;15238;49.082;9.102;2023-03-12T01:38:29;13.75;;;6.57;;
27889;SDS011;15238;49.082;9.102;2023-03-12T01:40:31;13.73;;;6.47;;
27889;SDS011;15238;49.082;9.102;2023-03-12T01:42:33;14.30;;;6.90;;
27889;SDS011;15238;49.082;9.102;2023-03-12T01:44:50;10.30;;;5.68;;
27889;SDS011;15238;49.082;9.102;2023-03-12T01:46:55;9.73;;;5.38;;
27889;SDS011;15238;49.082;9.102;2023-03-12T01:49:06;10.70;;;5.22;;
27889;SDS011;15238;49.082;9.102;2023-03-12T01:51:11;12.88;;;5.88;;
27889;SDS011;15238;49.082;9.102;2023-03-12T01:53:13;12.02;;;5.50;;
27889;SDS011;15238;49.082;9.102;2023-03-12T01:55:14;14.05;;;5.38;;
27889;SDS011;15238;49.082;9.102;2023-03-12T01:57:17;9.05;;;4.97;;
27889;SDS011;15238;49.082;9.102;2023-03-12T01:59:23;9.95;;;4.82;;
27889;SDS011;15238;49.082;9.102;2023-03-12T02:01:30;9.20;;;5.25;;
27889;SDS011;15238;49.082;9.102;2023-03-12T02:03:30;12.93;;;5.78;;
27889;SDS011;15238;49.082;9.102;2023-03-12T02:05:34;13.05;;;5.32;;
27889;SDS011;15238;49.082;9.102;2023-03-12T02:07:38;9.82;;;5.15;;
27889;SDS011;15238;49.082;9.102;2023-03-12T02:09:39;14.07;;;4.93;;
27889;SDS011;15238;49.082;9.102;2023-03-12T02:11:42;9.27;;;4.95;;
27889;SDS011;15238;49.082;9.102;2023-03-12T02:13:42;20.42;;;4.97;;
27889;SDS011;15238;49.082;9.102;2023-03-12T02:15:43;11.80;;;5.22;;
27889;SDS011;15238;49.082;9.102;2023-03-12T02:17:44;11.40;;;5.65;;
27889;SDS011;15238;49.082;9.102;2023-03-12T02:22:10;8.52;;;4.47;;
27889;SDS011;15238;49.082;9.102;2023-03-12T02:24:16;10.48;;;5.55;;
27889;SDS011;15238;49.082;9.102;2023-03-12T02:26:41;10.50;;;5.88;;
27889;SDS011;15238;49.082;9.102;2023-03-12T02:28:42;11.38;;;5.80;;
27889;SDS011;15238;49.082;9.102;2023-03-12T02:30:46;11.95;;;6.00;;
27889;SDS011;15238;49.082;9.102;2023-03-12T02:32:48;12.73;;;5.43;;
27889;SDS011;15238;49.082;9.102;2023-03-12T02:34:50;12.40;;;5.63;;
27889;SDS011;15238;49.082;9.102;2023-03-12T02:36:51;9.10;;;4.72;;
27889;SDS011;15238;49.082;9.102;2023-03-12T02:38:52;9.23;;;5.28;;
27889;SDS011;15238;49.082;9.102;2023-03-12T02:40:53;9.45;;;5.97;;
27889;SDS011;15238;49.082;9.102;2023-03-12T02:42:57;10.10;;;5.18;;
27889;SDS011;15238;49.082;9.102;2023-03-12T02:44:58;8.55;;;4.90;;
27889;SDS011;15238;49.082;9.102;2023-03-12T02:47:00;10.93;;;5.20;;
27889;SDS011;15238;49.082;9.102;2023-03-12T02:49:01;11.30;;;4.78;;
27889;SDS011;15238;49.082;9.102;2023-03-12T02:51:02;11.07;;;5.00;;
27889;SDS011;15238;49.082;9.102;2023-03-12T02:53:03;14.50;;;5.32;;
27889;SDS011;15238;49.082;9.102;2023-03-12T02:55:04;10.93;;;5.93;;
27889;SDS011;15238;49.082;9.102;2023-03-12T02:57:06;9.52;;;5.15;;
27889;SDS011;15238;49.082;9.102;2023-03-12T02:59:07;12.70;;;5.22;;
27889;SDS011;15238;49.082;9.102;2023-03-12T03:01:08;15.30;;;5.40;;
27889;SDS011;15238;49.082;9.102;2023-03-12T03:03:09;10.23;;;5.00;;
27889;SDS011;15238;49.082;9.102;2023-03-12T03:05:10;7.75;;;4.90;;
27889;SDS011;15238;49.082;9.102;2023-03-12T03:07:11;11.15;;;5.72;;
27889;SDS011;15238;49.082;9.102;2023-03-12T03:09:12;9.85;;;4.80;;
27889;SDS011;15238;49.082;9.102;2023-03-12T03:11:12;7.68;;;4.82;;
27889;SDS011;15238;49.082;9.102;2023-03-12T03:13:13;9.05;;;4.47;;
27889;SDS011;15238;49.082;9.102;2023-03-12T03:15:13;13.18;;;5.00;;
27889;SDS011;15238;49.082;9.102;2023-03-12T03:17:14;11.68;;;4.90;;
27889;SDS011;15238;49.082;9.102;2023-03-12T03:19:14;9.07;;;4.75;;
27889;SDS011;15238;49.082;9.102;2023-03-12T03:21:15;8.32;;;4.60;;
27889;SDS011;15238;49.082;9.102;2023-03-12T03:23:16;11.63;;;4.90;;
27889;SDS011;15238;49.082;9.102;2023-03-12T03:25:17;12.82;;;4.82;;
27889;SDS011;15238;49.082;9.102;2023-03-12T03:27:21;9.20;;;4.78;;
27889;SDS011;15238;49.082;9.102;2023-03-12T03:29:21;10.65;;;4.85;;
27889;SDS011;15238;49.082;9.102;2023-03-12T03:31:22;8.75;;;4.72;;
27889;SDS011;15238;49.082;9.102;2023-03-12T03:33:22;10.50;;;5.13;;
27889;SDS011;15238;49.082;9.102;2023-03-12T03:35:23;8.77;;;4.75;;
27889;SDS011;15238;49.082;9.102;2023-03-12T03:37:24;10.55;;;4.43;;
27889;SDS011;15238;49.082;9.102;2023-03-12T03:39:24;14.70;;;5.35;;
27889;SDS011;15238;49.082;9.102;2023-03-12T03:41:27;10.60;;;4.72;;
27889;SDS011;15238;49.082;9.102;2023-03-12T03:43:28;12.02;;;5.00;;
27889;SDS011;15238;49.082;9.102;2023-03-12T03:45:28;9.25;;;4.78;;
27889;SDS011;15238;49.082;9.102;2023-03-12T03:47:29;9.57;;;4.95;;
27889;SDS011;15238;49.082;9.102;2023-03-12T03:49:29;10.40;;;4.53;;
27889;SDS011;15238;49.082;9.102;2023-03-12T03:51:31;8.20;;;4.50;;
27889;SDS011;15238;49.082;9.102;2023-03-12T03:53:32;11.57;;;5.13;;
27889;SDS011;15238;49.082;9.102;2023-03-12T03:55:37;10.27;;;4.32;;
27889;SDS011;15238;49.082;9.102;2023-03-12T03:57:38;8.20;;;4.35;;
27889;SDS011;15238;49.082;9.102;2023-03-12T03:59:39;9.63;;;4.95;;
27889;SDS011;15238;49.082;9.102;2023-03-12T04:01:39;9.60;;;4.68;;
27889;SDS011;15238;49.082;9.102;2023-03-12T04:03:40;9.85;;;5.05;;
27889;SDS011;15238;49.082;9.102;2023-03-12T04:05:41;12.40;;;5.00;;
27889;SDS011;15238;49.082;9.102;2023-03-12T04:07:44;10.18;;;4.70;;
27889;SDS011;15238;49.082;9.102;2023-03-12T04:09:45;9.80;;;4.43;;
27889;SDS011;15238;49.082;9.102;2023-03-12T04:11:45;13.90;;;4.35;;
27889;SDS011;15238;49.082;9.102;2023-03-12T04:13:46;8.15;;;4.63;;
27889;SDS011;15238;49.082;9.102;2023-03-12T04:15:51;9.52;;;4.53;;
27889;SDS011;15238;49.082;9.102;2023-03-12T04:17:52;6.70;;;4.93;;
27889;SDS011;15238;49.082;9.102;2023-03-12T04:19:53;6.32;;;4.07;;
27889;SDS011;15238;49.082;9.102;2023-03-12T04:21:53;6.65;;;4.22;;
27889;SDS011;15238;49.082;9.102;2023-03-12T04:23:54;8.75;;;4.05;;
27889;SDS011;15238;49.082;9.102;2023-03-12T04:25:54;5.85;;;3.70;;
27889;SDS011;15238;49.082;9.102;2023-03-12T04:27:55;11.35;;;4.30;;
27889;SDS011;15238;49.082;9.102;2023-03-12T04:29:55;9.13;;;4.03;;
27889;SDS011;15238;49.082;9.102;2023-03-12T04:31:56;10.35;;;5.15;;
27889;SDS011;15238;49.082;9.102;2023-03-12T04:33:56;11.82;;;5.13;;
27889;SDS011;15238;49.082;9.102;2023-03-12T04:35:57;6.85;;;4.20;;
27889;SDS011;15238;49.082;9.102;2023-03-12T04:37:59;13.20;;;4.30;;
27889;SDS011;15238;49.082;9.102;2023-03-12T04:40:01;8.23;;;4.70;;
27889;SDS011;15238;49.082;9.102;2023-03-12T04:42:06;8.15;;;4.45;;
27889;SDS011;15238;49.082;9.102;2023-03-12T04:44:07;9.73;;;4.80;;
27889;SDS011;15238;49.082;9.102;2023-03-12T04:46:08;8.43;;;4.68;;
27889;SDS011;15238;49.082;9.102;2023-03-12T04:48:09;9.93;;;4.70;;
27889;SDS011;15238;49.082;9.102;2023-03-12T04:50:09;8.18;;;4.93;;
27889;SDS011;15238;49.082;9.102;2023-03-12T04:52:11;8.93;;;5.15;;
27889;SDS011;15238;49.082;9.102;2023-03-12T04:54:12;6.78;;;3.88;;
27889;SDS011;15238;49.082;9.102;2023-03-12T04:56:13;11.57;;;5.43;;
27889;SDS011;15238;49.082;9.102;2023-03-12T04:58:13;10.00;;;5.07;;
27889;SDS011;15238;49.082;9.102;2023-03-12T05:00:15;8.27;;;4.85;;
27889;SDS011;15238;49.082;9.102;2023-03-12T05:02:16;6.95;;;4.30;;
27889;SDS011;15238;49.082;9.102;2023-03-12T05:04:17;9.48;;;5.05;;
27889;SDS011;15238;49.082;9.102;2023-03-12T05:06:17;9.63;;;4.72;;
27889;SDS011;15238;49.082;9.102;2023-03-12T05:08:19;11.23;;;5.72;;
27889;SDS011;15238;49.082;9.102;2023-03-12T05:10:19;9.52;;;5.30;;
27889;SDS011;15238;49.082;9.102;2023-03-12T05:12:20;10.88;;;5.53;;
27889;SDS011;15238;49.082;9.102;2023-03-12T05:14:20;10.20;;;4.80;;
27889;SDS011;15238;49.082;9.102;2023-03-12T05:16:21;10.98;;;4.85;;
27889;SDS011;15238;49.082;9.102;2023-03-12T05:18:22;10.75;;;5.80;;
27889;SDS011;15238;49.082;9.102;2023-03-12T05:20:22;9.45;;;3.83;;
27889;SDS011;15238;49.082;9.102;2023-03-12T05:22:23;8.48;;;4.13;;
27889;SDS011;15238;49.082;9.102;2023-03-12T05:24:23;8.70;;;4.38;;
27889;SDS011;15238;49.082;9.102;2023-03-12T05:26:25;5.95;;;4.13;;
27889;SDS011;15238;49.082;9.102;2023-03-12T05:28:27;7.35;;;4.60;;
27889;SDS011;15238;49.082;9.102;2023-03-12T05:30:28;11.38;;;4.07;;
27889;SDS011;15238;49.082;9.102;2023-03-12T05:32:28;8.48;;;3.92;;
27889;SDS011;15238;49.082;9.102;2023-03-12T05:34:29;10.18;;;4.68;;
27889;SDS011;15238;49.082;9.102;2023-03-12T05:36:30;8.55;;;3.92;;
27889;SDS011;15238;49.082;9.102;2023-03-12T05:38:31;8.75;;;4.40;;
27889;SDS011;15238;49.082;9.102;2023-03-12T05:40:31;7.38;;;3.50;;
27889;SDS011;15238;49.082;9.102;2023-03-12T05:42:32;9.35;;;3.20;;
27889;SDS011;15238;49.082;9.102;2023-03-12T05:44:32;8.52;;;3.15;;
27889;SDS011;15238;49.082;9.102;2023-03-12T05:46:34;8.40;;;3.85;;
27889;SDS011;15238;49.082;9.102;2023-03-12T05:48:34;8.25;;;3.40;;
27889;SDS011;15238;49.082;9.102;2023-03-12T05:50:35;7.75;;;3.40;;
27889;SDS011;15238;49.082;9.102;2023-03-12T05:52:35;5.95;;;3.60;;
27889;SDS011;15238;49.082;9.102;2023-03-12T05:54:36;7.30;;;4.03;;
27889;SDS011;15238;49.082;9.102;2023-03-12T05:56:36;9.98;;;4.13;;
27889;SDS011;15238;49.082;9.102;2023-03-12T05:58:38;10.50;;;3.67;;
27889;SDS011;15238;49.082;9.102;2023-03-12T06:00:39;5.57;;;3.58;;
27889;SDS011;15238;49.082;9.102;2023-03-12T06:02:41;8.35;;;4.10;;
27889;SDS011;15238;49.082;9.102;2023-03-12T06:04:42;5.85;;;3.85;;
27889;SDS011;15238;49.082;9.102;2023-03-12T06:06:42;7.72;;;4.85;;
27889;SDS011;15238;49.082;9.102;2023-03-12T06:08:43;10.82;;;4.30;;
27889;SDS011;15238;49.082;9.102;2023-03-12T06:10:44;6.95;;;4.28;;
27889;SDS011;15238;49.082;9.102;2023-03-12T06:12:45;6.78;;;3.60;;
27889;SDS011;15238;49.082;9.102;2023-03-12T06:14:45;7.97;;;3.83;;
27889;SDS011;15238;49.082;9.102;2023-03-12T06:16:46;8.38;;;4.15;;
27889;SDS011;15238;49.082;9.102;2023-03-12T06:18:46;8.75;;;3.38;;
27889;SDS011;15238;49.082;9.102;2023-03-12T06:20:47;10.70;;;4.15;;
27889;SDS011;15238;49.082;9.102;2023-03-12T06:22:48;10.45;;;3.35;;
27889;SDS011;15238;49.082;9.102;2023-03-12T06:24:48;7.63;;;3.50;;
27889;SDS011;15238;49.082;9.102;2023-03-12T06:26:49;5.10;;;3.05;;
27889;SDS011;15238;49.082;9.102;2023-03-12T06:28:50;8.77;;;4.13;;
27889;SDS011;15238;49.082;9.102;2023-03-12T06:30:54;6.10;;;3.47;;
27889;SDS011;15238;49.082;9.102;2023-03-12T06:32:55;5.47;;;3.10;;
27889;SDS011;15238;49.082;9.102;2023-03-12T06:34:55;8.45;;;3.25;;
27889;SDS011;15238;49.082;9.102;2023-03-12T06:36:56;6.57;;;3.42;;
27889;SDS011;15238;49.082;9.102;2023-03-12T06:38:56;9.20;;;3.85;;
27889;SDS011;15238;49.082;9.102;2023-03-12T06:43:05;6.65;;;4.10;;
27889;SDS011;15238;49.082;9.102;2023-03-12T06:45:11;8.68;;;3.90;;
27889;SDS011;15238;49.082;9.102;2023-03-12T06:47:11;8.45;;;4.15;;
27889;SDS011;15238;49.082;9.102;2023-03-12T06:49:12;6.97;;;4.05;;
27889;SDS011;15238;49.082;9.102;2023-03-12T06:51:14;12.25;;;4.28;;
27889;SDS011;15238;49.082;9.102;2023-03-12T06:53:16;9.85;;;4.63;;
27889;SDS011;15238;49.082;9.102;2023-03-12T06:55:17;10.18;;;5.32;;
27889;SDS011;15238;49.082;9.102;2023-03-12T06:57:17;10.77;;;4.95;;
27889;SDS011;15238;49.082;9.102;2023-03-12T06:59:18;13.40;;;5.22;;
27889;SDS011;15238;49.082;9.102;2023-03-12T07:01:20;7.40;;;4.80;;
27889;SDS011;15238;49.082;9.102;2023-03-12T07:03:21;8.05;;;4.88;;
27889;SDS011;15238;49.082;9.102;2023-03-12T07:05:22;10.32;;;4.55;;
27889;SDS011;15238;49.082;9.102;2023-03-12T07:07:23;13.60;;;5.25;;
27889;SDS011;15238;49.082;9.102;2023-03-12T07:09:24;13.18;;;5.25;;
27889;SDS011;15238;49.082;9.102;2023-03-12T07:11:24;9.85;;;5.72;;
27889;SDS011;15238;49.082;9.102;2023-03-12T07:13:25;11.10;;;6.20;;
27889;SDS011;15238;49.082;9.102;2023-03-12T07:15:26;10.68;;;5.80;;
27889;SDS011;15238;49.082;9.102;2023-03-12T07:17:26;10.52;;;5.60;;
27889;SDS011;15238;49.082;9.102;2023-03-12T07:19:27;11.30;;;6.00;;
27889;SDS011;15238;49.082;9.102;2023-03-12T07:21:29;10.32;;;5.53;;
27889;SDS011;15238;49.082;9.102;2023-03-12T07:23:30;9.13;;;5.47;;
27889;SDS011;15238;49.082;9.102;2023-03-12T07:25:33;9.20;;;5.40;;
27889;SDS011;15238;49.082;9.102;2023-03-12T07:27:36;8.98;;;5.70;;
27889;SDS011;15238;49.082;9.102;2023-03-12T07:29:36;11.45;;;6.82;;
27889;SDS011;15238;49.082;9.102;2023-03-12T07:31:37;11.20;;;5.90;;
27889;SDS011;15238;49.082;9.102;2023-03-12T07:33:37;13.23;;;7.13;;
27889;SDS011;15238;49.082;9.102;2023-03-12T07:35:38;13.05;;;7.25;;
27889;SDS011;15238;49.082;9.102;2023-03-12T07:37:39;11.75;;;6.40;;
27889;SDS011;15238;49.082;9.102;2023-03-12T07:39:39;13.05;;;6.80;;
27889;SDS011;15238;49.082;9.102;2023-03-12T07:41:40;11.43;;;6.40;;
27889;SDS011;15238;49.082;9.102;2023-03-12T07:43:40;12.65;;;6.40;;
27889;SDS011;15238;49.082;9.102;2023-03-12T07:45:41;12.55;;;6.90;;
27889;SDS011;15238;49.082;9.102;2023-03-12T07:47:41;16.02;;;7.45;;
27889;SDS011;15238;49.082;9.102;2023-03-12T07:49:42;16.77;;;7.60;;
27889;SDS011;15238;49.082;9.102;2023-03-12T07:51:43;15.48;;;7.32;;
27889;SDS011;15238;49.082;9.102;2023-03-12T07:53:43;13.88;;;7.78;;
27889;SDS011;15238;49.082;9.102;2023-03-12T07:55:44;16.58;;;8.05;;
27889;SDS011;15238;49.082;9.102;2023-03-12T07:57:46;15.05;;;7.95;;
27889;SDS011;15238;49.082;9.102;2023-03-12T07:59:46;13.10;;;7.25;;
27889;SDS011;15238;49.082;9.102;2023-03-12T08:01:47;16.85;;;7.70;;
27889;SDS011;15238;49.082;9.102;2023-03-12T08:03:48;16.70;;;7.40;;
27889;SDS011;15238;49.082;9.102;2023-03-12T08:05:59;14.38;;;7.65;;
27889;SDS011;15238;49.082;9.102;2023-03-12T08:08:02;14.20;;;6.43;;
27889;SDS011;15238;49.082;9.102;2023-03-12T08:10:04;10.48;;;6.68;;
27889;SDS011;15238;49.082;9.102;2023-03-12T08:12:07;14.95;;;7.07;;
27889;SDS011;15238;49.082;9.102;2023-03-12T08:14:08;11.98;;;5.93;;
27889;SDS011;15238;49.082;9.102;2023-03-12T08:16:09;13.10;;;6.20;;
27889;SDS011;15238;49.082;9.102;2023-03-12T08:18:09;16.85;;;7.45;;
27889;SDS011;15238;49.082;9.102;2023-03-12T08:20:10;15.23;;;6.30;;
27889;SDS011;15238;49.082;9.102;2023-03-12T08:22:11;13.10;;;5.88;;
27889;SDS011;15238;49.082;9.102;2023-03-12T08:24:11;12.60;;;6.10;;
27889;SDS011;15238;49.082;9.102;2023-03-12T08:26:12;9.93;;;5.72;;
27889;SDS011;15238;49.082;9.102;2023-03-12T08:28:13;13.52;;;6.03;;
27889;SDS011;15238;49.082;9.102;2023-03-12T08:30:14;10.75;;;6.25;;
27889;SDS011;15238;49.082;9.102;2023-03-12T08:32:15;11.88;;;6.28;;
27889;SDS011;15238;49.082;9.102;2023-03-12T08:34:16;11.10;;;5.15;;
27889;SDS011;15238;49.082;9.102;2023-03-12T08:36:17;13.43;;;5.47;;
27889;SDS011;15238;49.082;9.102;2023-03-12T08:38:17;15.70;;;5.55;;
27889;SDS011;15238;49.082;9.102;2023-03-12T08:40:18;17.95;;;6.78;;
27889;SDS011;15238;49.082;9.102;2023-03-12T08:42:18;14.80;;;6.63;;
27889;SDS011;15238;49.082;9.102;2023-03-12T08:44:19;11.82;;;6.45;;
27889;SDS011;15238;49.082;9.102;2023-03-12T08:46:23;15.35;;;7.65;;
27889;SDS011;15238;49.082;9.102;2023-03-12T08:48:24;15.45;;;7.05;;
27889;SDS011;15238;49.082;9.102;2023-03-12T08:50:25;13.80;;;7.75;;
27889;SDS011;15238;49.082;9.102;2023-03-12T08:52:28;17.60;;;8.80;;
27889;SDS011;15238;49.082;9.102;2023-03-12T08:54:28;17.70;;;7.85;;
27889;SDS011;15238;49.082;9.102;2023-03-12T08:56:29;18.90;;;8.95;;
27889;SDS011;15238;49.082;9.102;2023-03-12T08:58:30;18.35;;;9.30;;
27889;SDS011;15238;49.082;9.102;2023-03-12T09:00:30;12.95;;;6.07;;
27889;SDS011;15238;49.082;9.102;2023-03-12T09:02:31;10.40;;;5.38;;
27889;SDS011;15238;49.082;9.102;2023-03-12T09:04:31;8.23;;;4.63;;
27889;SDS011;15238;49.082;9.102;2023-03-12T09:06:32;7.05;;;4.80;;
27889;SDS011;15238;49.082;9.102;2023-03-12T09:08:34;13.05;;;4.65;;
27889;SDS011;15238;49.082;9.102;2023-03-12T09:10:35;6.00;;;4.25;;
27889;SDS011;15238;49.082;9.102;2023-03-12T09:12:36;7.07;;;4.30;;
27889;SDS011;15238;49.082;9.102;2023-03-12T09:14:36;9.10;;;4.38;;
27889;SDS011;15238;49.082;9.102;2023-03-12T09:16:37;7.55;;;4.53;;
27889;SDS011;15238;49.082;9.102;2023-03-12T09:18:37;10.85;;;5.35;;
27889;SDS011;15238;49.082;9.102;2023-03-12T09:20:38;6.47;;;4.10;;
27889;SDS011;15238;49.082;9.102;2023-03-12T09:22:39;8.05;;;4.30;;
27889;SDS011;15238;49.082;9.102;2023-03-12T09:24:40;7.57;;;4.38;;
27889;SDS011;15238;49.082;9.102;2023-03-12T09:26:40;8.70;;;4.88;;
27889;SDS011;15238;49.082;9.102;2023-03-12T09:28:41;9.35;;;4.10;;
27889;SDS011;15238;49.082;9.102;2023-03-12T09:30:43;9.02;;;4.63;;
27889;SDS011;15238;49.082;9.102;2023-03-12T09:32:44;7.80;;;4.60;;
27889;SDS011;15238;49.082;9.102;2023-03-12T09:34:45;9.80;;;4.75;;
27889;SDS011;15238;49.082;9.102;2023-03-12T09:36:45;7.72;;;4.30;;
27889;SDS011;15238;49.082;9.102;2023-03-12T09:38:46;7.13;;;4.35;;
27889;SDS011;15238;49.082;9.102;2023-03-12T09:40:46;10.18;;;5.35;;
27889;SDS011;15238;49.082;9.102;2023-03-12T09:42:57;8.30;;;5.03;;
27889;SDS011;15238;49.082;9.102;2023-03-12T09:45:01;8.68;;;5.80;;
27889;SDS011;15238;49.082;9.102;2023-03-12T09:47:06;8.20;;;4.80;;
27889;SDS011;15238;49.082;9.102;2023-03-12T09:49:20;11.18;;;4.90;;
27889;SDS011;15238;49.082;9.102;2023-03-12T09:51:37;11.82;;;5.55;;
27889;SDS011;15238;49.082;9.102;2023-03-12T09:53:46;9.65;;;4.63;;
27889;SDS011;15238;49.082;9.102;2023-03-12T09:55:51;10.23;;;6.18;;
27889;SDS011;15238;49.082;9.102;2023-03-12T09:57:53;9.13;;;5.38;;
27889;SDS011;15238;49.082;9.102;2023-03-12T09:59:55;10.15;;;5.72;;
27889;SDS011;15238;49.082;9.102;2023-03-12T10:01:59;8.30;;;5.10;;
27889;SDS011;15238;49.082;9.102;2023-03-12T10:04:14;8.55;;;5.60;;
27889;SDS011;15238;49.082;9.102;2023-03-12T10:06:18;8.75;;;5.75;;
27889;SDS011;15238;49.082;9.102;2023-03-12T10:10:57;16.08;;;9.38;;
27889;SDS011;15238;49.082;9.102;2023-03-12T10:13:04;33.60;;;12.65;;
27889;SDS011;15238;49.082;9.102;2023-03-12T10:17:42;25.95;;;15.90;;
27889;SDS011;15238;49.082;9.102;2023-03-12T10:24:52;12.98;;;10.15;;
27889;SDS011;15238;49.082;9.102;2023-03-12T10:27:19;9.52;;;6.75;;
27889;SDS011;15238;49.082;9.102;2023-03-12T10:29:26;10.60;;;6.40;;
27889;SDS011;15238;49.082;9.102;2023-03-12T10:31:52;9.70;;;6.68;;
27889;SDS011;15238;49.082;9.102;2023-03-12T10:36:02;8.75;;;5.57;;
27889;SDS011;15238;49.082;9.102;2023-03-12T10:38:30;14.65;;;8.43;;
27889;SDS011;15238;49.082;9.102;2023-03-12T10:40:34;22.65;;;14.77;;
27889;SDS011;15238;49.082;9.102;2023-03-12T10:42:35;13.07;;;7.43;;
27889;SDS011;15238;49.082;9.102;2023-03-12T10:44:36;10.45;;;6.28;;
27889;SDS011;15238;49.082;9.102;2023-03-12T10:48:46;14.77;;;7.28;;
27889;SDS011;15238;49.082;9.102;2023-03-12T10:55:25;8.65;;;6.30;;
27889;SDS011;15238;49.082;9.102;2023-03-12T10:57:40;11.57;;;7.07;;
27889;SDS011;15238;49.082;9.102;2023-03-12T10:59:42;10.18;;;6.85;;
27889;SDS011;15238;49.082;9.102;2023-03-12T11:01:46;11.50;;;7.97;;
27889;SDS011;15238;49.082;9.102;2023-03-12T11:03:49;39.85;;;21.98;;
27889;SDS011;15238;49.082;9.102;2023-03-12T11:05:51;18.58;;;10.85;;
27889;SDS011;15238;49.082;9.102;2023-03-12T11:07:53;11.52;;;8.82;;
27889;SDS011;15238;49.082;9.102;2023-03-12T11:10:11;11.65;;;8.13;;
27889;SDS011;15238;49.082;9.102;2023-03-12T11:12:22;25.45;;;17.40;;
27889;SDS011;15238;49.082;9.102;2023-03-12T11:14:26;14.00;;;8.88;;
27889;SDS011;15238;49.082;9.102;2023-03-12T11:16:28;12.65;;;8.35;;
27889;SDS011;15238;49.082;9.102;2023-03-12T11:20:31;9.15;;;6.03;;
27889;SDS011;15238;49.082;9.102;2023-03-12T11:22:33;12.20;;;7.00;;
27889;SDS011;15238;49.082;9.102;2023-03-12T11:24:34;11.88;;;5.60;;
27889;SDS011;15238;49.082;9.102;2023-03-12T11:28:55;9.65;;;5.32;;
27889;SDS011;15238;49.082;9.102;2023-03-12T11:33:29;7.40;;;5.07;;
27889;SDS011;15238;49.082;9.102;2023-03-12T11:35:38;7.75;;;5.10;;
27889;SDS011;15238;49.082;9.102;2023-03-12T11:38:10;13.20;;;8.18;;
27889;SDS011;15238;49.082;9.102;2023-03-12T11:45:26;8.02;;;4.97;;
27889;SDS011;15238;49.082;9.102;2023-03-12T11:50:20;8.13;;;5.18;;
27889;SDS011;15238;49.082;9.102;2023-03-12T11:52:46;7.93;;;4.82;;
27889;SDS011;15238;49.082;9.102;2023-03-12T12:00:13;8.32;;;4.55;;
27889;SDS011;15238;49.082;9.102;2023-03-12T12:02:42;9.85;;;4.68;;
27889;SDS011;15238;49.082;9.102;2023-03-12T12:07:32;10.27;;;3.95;;
27889;SDS011;15238;49.082;9.102;2023-03-12T12:10:02;7.82;;;4.88;;
27889;SDS011;15238;49.082;9.102;2023-03-12T12:16:35;4.57;;;2.97;;
27889;SDS011;15238;49.082;9.102;2023-03-12T12:21:41;5.13;;;2.80;;
27889;SDS011;15238;49.082;9.102;2023-03-12T12:24:08;14.35;;;3.42;;
27889;SDS011;15238;49.082;9.102;2023-03-12T12:30:35;10.23;;;3.28;;
27889;SDS011;15238;49.082;9.102;2023-03-12T12:33:15;7.25;;;2.75;;
27889;SDS011;15238;49.082;9.102;2023-03-12T12:35:34;5.68;;;2.83;;
27889;SDS011;15238;49.082;9.102;2023-03-12T12:37:54;11.38;;;3.30;;
27889;SDS011;15238;49.082;9.102;2023-03-12T12:40:20;9.10;;;2.92;;
27889;SDS011;15238;49.082;9.102;2023-03-12T12:42:34;7.60;;;2.83;;
27889;SDS011;15238;49.082;9.102;2023-03-12T12:44:42;8.95;;;2.60;;
27889;SDS011;15238;49.082;9.102;2023-03-12T12:46:58;7.68;;;2.60;;
27889;SDS011;15238;49.082;9.102;2023-03-12T12:49:14;7.07;;;2.50;;
27889;SDS011;15238;49.082;9.102;2023-03-12T12:51:21;7.90;;;2.53;;
27889;SDS011;15238;49.082;9.102;2023-03-12T12:53:29;4.35;;;2.28;;
27889;SDS011;15238;49.082;9.102;2023-03-12T12:55:37;10.07;;;3.60;;
27889;SDS011;15238;49.082;9.102;2023-03-12T12:57:48;7.13;;;2.50;;
27889;SDS011;15238;49.082;9.102;2023-03-12T13:00:17;5.80;;;2.60;;
27889;SDS011;15238;49.082;9.102;2023-03-12T13:02:48;5.45;;;2.10;;
27889;SDS011;15238;49.082;9.102;2023-03-12T13:04:50;5.82;;;1.92;;
27889;SDS011;15238;49.082;9.102;2023-03-12T13:09:11;4.90;;;2.65;;
27889;SDS011;15238;49.082;9.102;2023-03-12T13:13:18;5.47;;;2.08;;
27889;SDS011;15238;49.082;9.102;2023-03-12T13:17:34;4.82;;;2.03;;
27889;SDS011;15238;49.082;9.102;2023-03-12T13:20:15;4.05;;;1.77;;
27889;SDS011;15238;49.082;9.102;2023-03-12T13:25:07;6.60;;;1.77;;